sensor_id;sensor_type;location;lat;lon;timestamp;pressure;altitude;pressure_sealevel;temperature;humidity
11099;BME280;12223;42.650;23.364;2023-07-30T00:01:08;94558.94;;;22.96;66.57
11099;BME280;12223;42.650;23.364;2023-07-30T00:03:34;94559.28;;;23.16;65.04
11099;BME280;12223;42.650;23.364;2023-07-30T00:06:03;94559.38;;;23.25;64.52
11099;BME280;12223;42.650;23.364;2023-07-30T00:08:29;94564.91;;;23.20;64.25
11099;BME280;12223;42.650;23.364;2023-07-30T00:10:57;94559.09;;;23.27;63.54
11099;BME280;12223;42.650;23.364;2023-07-30T00:13:24;94561.03;;;22.71;66.59
11099;BME280;12223;42.650;23.364;2023-07-30T00:15:51;94559.91;;;23.13;64.12
11099;BME280;12223;42.650;23.364;2023-07-30T00:18:17;94560.47;;;23.24;63.61
11099;BME280;12223;42.650;23.364;2023-07-30T00:20:44;94555.69;;;23.21;63.06
11099;BME280;12223;42.650;23.364;2023-07-30T00:23:12;94560.91;;;23.04;64.13
11099;BME280;12223;42.650;23.364;2023-07-30T00:25:39;94555.09;;;22.74;65.80
11099;BME280;12223;42.650;23.364;2023-07-30T00:28:05;94557.97;;;22.78;65.67
11099;BME280;12223;42.650;23.364;2023-07-30T00:30:32;94558.72;;;22.24;68.34
11099;BME280;12223;42.650;23.364;2023-07-30T00:32:59;94557.63;;;22.25;68.67
11099;BME280;12223;42.650;23.364;2023-07-30T00:35:26;94555.72;;;21.79;70.66
11099;BME280;12223;42.650;23.364;2023-07-30T00:37:52;94555.31;;;21.86;71.10
11099;BME280;12223;42.650;23.364;2023-07-30T00:40:20;94542.53;;;21.45;73.99
11099;BME280;12223;42.650;23.364;2023-07-30T00:42:47;94555.19;;;21.77;72.25
11099;BME280;12223;42.650;23.364;2023-07-30T00:45:15;94538.91;;;21.87;71.03
11099;BME280;12223;42.650;23.364;2023-07-30T00:47:41;94548.88;;;22.19;69.69
11099;BME280;12223;42.650;23.364;2023-07-30T00:50:10;94555.00;;;22.20;68.88
11099;BME280;12223;42.650;23.364;2023-07-30T00:52:39;94551.13;;;22.12;69.59
11099;BME280;12223;42.650;23.364;2023-07-30T00:55:07;94548.44;;;22.26;68.45
11099;BME280;12223;42.650;23.364;2023-07-30T00:57:37;94549.25;;;22.26;68.31
11099;BME280;12223;42.650;23.364;2023-07-30T01:00:04;94546.78;;;22.30;67.99
11099;BME280;12223;42.650;23.364;2023-07-30T01:02:33;94545.78;;;22.53;66.85
11099;BME280;12223;42.650;23.364;2023-07-30T01:05:02;94552.06;;;22.62;65.77
11099;BME280;12223;42.650;23.364;2023-07-30T01:07:29;94554.16;;;22.38;67.42
11099;BME280;12223;42.650;23.364;2023-07-30T01:09:56;94551.75;;;22.23;67.43
11099;BME280;12223;42.650;23.364;2023-07-30T01:12:24;94549.66;;;21.87;70.36
11099;BME280;12223;42.650;23.364;2023-07-30T01:14:52;94547.75;;;22.07;69.88
11099;BME280;12223;42.650;23.364;2023-07-30T01:17:21;94549.47;;;20.90;79.14
11099;BME280;12223;42.650;23.364;2023-07-30T01:19:48;94554.84;;;20.48;83.18
11099;BME280;12223;42.650;23.364;2023-07-30T01:22:17;94559.28;;;21.00;82.01
11099;BME280;12223;42.650;23.364;2023-07-30T01:24:44;94557.41;;;21.38;77.85
11099;BME280;12223;42.650;23.364;2023-07-30T01:27:16;94549.53;;;21.27;79.50
11099;BME280;12223;42.650;23.364;2023-07-30T01:29:49;94553.88;;;20.81;81.06
11099;BME280;12223;42.650;23.364;2023-07-30T01:32:22;94549.72;;;21.50;77.44
11099;BME280;12223;42.650;23.364;2023-07-30T01:34:52;94550.91;;;21.76;74.68
11099;BME280;12223;42.650;23.364;2023-07-30T01:37:21;94551.69;;;21.95;73.24
11099;BME280;12223;42.650;23.364;2023-07-30T01:39:49;94550.06;;;21.94;73.17
11099;BME280;12223;42.650;23.364;2023-07-30T01:42:16;94557.41;;;22.21;71.07
11099;BME280;12223;42.650;23.364;2023-07-30T01:44:43;94556.50;;;22.26;70.05
11099;BME280;12223;42.650;23.364;2023-07-30T01:47:10;94550.84;;;21.95;72.17
11099;BME280;12223;42.650;23.364;2023-07-30T01:49:37;94560.41;;;21.55;75.32
11099;BME280;12223;42.650;23.364;2023-07-30T01:52:04;94563.34;;;21.72;74.09
11099;BME280;12223;42.650;23.364;2023-07-30T01:54:32;94565.44;;;21.75;72.41
11099;BME280;12223;42.650;23.364;2023-07-30T01:56:59;94557.91;;;22.10;70.30
11099;BME280;12223;42.650;23.364;2023-07-30T01:59:26;94560.94;;;21.71;70.86
11099;BME280;12223;42.650;23.364;2023-07-30T02:01:53;94560.53;;;21.07;76.99
11099;BME280;12223;42.650;23.364;2023-07-30T02:04:19;94562.84;;;21.51;73.20
11099;BME280;12223;42.650;23.364;2023-07-30T02:06:46;94564.47;;;21.52;74.72
11099;BME280;12223;42.650;23.364;2023-07-30T02:09:13;94562.53;;;21.72;72.60
11099;BME280;12223;42.650;23.364;2023-07-30T02:11:41;94571.16;;;21.36;76.29
11099;BME280;12223;42.650;23.364;2023-07-30T02:14:09;94569.25;;;21.74;73.54
11099;BME280;12223;42.650;23.364;2023-07-30T02:16:36;94565.63;;;21.97;71.75
11099;BME280;12223;42.650;23.364;2023-07-30T02:19:03;94561.75;;;21.71;71.87
11099;BME280;12223;42.650;23.364;2023-07-30T02:21:30;94573.50;;;21.24;77.28
11099;BME280;12223;42.650;23.364;2023-07-30T02:23:58;94571.97;;;20.94;79.86
11099;BME280;12223;42.650;23.364;2023-07-30T02:26:25;94577.78;;;21.01;79.03
11099;BME280;12223;42.650;23.364;2023-07-30T02:28:53;94578.06;;;21.00;80.15
11099;BME280;12223;42.650;23.364;2023-07-30T02:31:20;94584.00;;;20.01;89.57
11099;BME280;12223;42.650;23.364;2023-07-30T02:33:47;94582.75;;;20.46;86.33
11099;BME280;12223;42.650;23.364;2023-07-30T02:36:14;94585.28;;;20.80;82.82
11099;BME280;12223;42.650;23.364;2023-07-30T02:38:40;94577.00;;;21.01;81.32
11099;BME280;12223;42.650;23.364;2023-07-30T02:41:07;94587.00;;;21.14;79.97
11099;BME280;12223;42.650;23.364;2023-07-30T02:43:34;94577.59;;;20.50;84.25
11099;BME280;12223;42.650;23.364;2023-07-30T02:46:02;94586.78;;;20.68;83.07
11099;BME280;12223;42.650;23.364;2023-07-30T02:48:29;94574.03;;;20.60;83.62
11099;BME280;12223;42.650;23.364;2023-07-30T02:50:55;94568.00;;;20.68;83.10
11099;BME280;12223;42.650;23.364;2023-07-30T02:53:22;94577.91;;;20.49;86.22
11099;BME280;12223;42.650;23.364;2023-07-30T02:55:49;94580.47;;;20.35;86.89
11099;BME280;12223;42.650;23.364;2023-07-30T02:58:15;94583.84;;;20.17;90.39
11099;BME280;12223;42.650;23.364;2023-07-30T03:00:42;94578.34;;;20.56;86.96
11099;BME280;12223;42.650;23.364;2023-07-30T03:03:10;94575.66;;;20.56;85.99
11099;BME280;12223;42.650;23.364;2023-07-30T03:05:37;94584.06;;;20.49;86.67
11099;BME280;12223;42.650;23.364;2023-07-30T03:08:07;94581.63;;;20.53;86.74
11099;BME280;12223;42.650;23.364;2023-07-30T03:10:36;94590.06;;;20.65;84.98
11099;BME280;12223;42.650;23.364;2023-07-30T03:13:03;94592.91;;;20.73;83.81
11099;BME280;12223;42.650;23.364;2023-07-30T03:15:29;94600.28;;;20.39;86.16
11099;BME280;12223;42.650;23.364;2023-07-30T03:17:56;94598.56;;;20.72;85.36
11099;BME280;12223;42.650;23.364;2023-07-30T03:20:24;94589.47;;;20.68;85.43
11099;BME280;12223;42.650;23.364;2023-07-30T03:22:51;94583.38;;;20.86;84.09
11099;BME280;12223;42.650;23.364;2023-07-30T03:25:18;94591.53;;;20.76;86.04
11099;BME280;12223;42.650;23.364;2023-07-30T03:27:44;94589.06;;;21.03;83.56
11099;BME280;12223;42.650;23.364;2023-07-30T03:30:11;94583.63;;;20.66;84.47
11099;BME280;12223;42.650;23.364;2023-07-30T03:32:38;94588.81;;;21.00;83.66
11099;BME280;12223;42.650;23.364;2023-07-30T03:35:06;94595.81;;;21.57;78.98
11099;BME280;12223;42.650;23.364;2023-07-30T03:37:34;94596.66;;;21.90;77.97
11099;BME280;12223;42.650;23.364;2023-07-30T03:40:01;94585.31;;;22.39;74.87
11099;BME280;12223;42.650;23.364;2023-07-30T03:42:28;94586.06;;;22.99;70.79
11099;BME280;12223;42.650;23.364;2023-07-30T03:44:55;94593.63;;;23.24;67.27
11099;BME280;12223;42.650;23.364;2023-07-30T03:47:21;94582.47;;;23.53;65.92
11099;BME280;12223;42.650;23.364;2023-07-30T03:49:48;94584.91;;;24.92;58.39
11099;BME280;12223;42.650;23.364;2023-07-30T03:52:15;94581.31;;;24.74;58.30
11099;BME280;12223;42.650;23.364;2023-07-30T03:54:44;94589.00;;;25.81;53.94
11099;BME280;12223;42.650;23.364;2023-07-30T03:57:10;94591.50;;;26.37;52.30
11099;BME280;12223;42.650;23.364;2023-07-30T03:59:37;94590.50;;;27.27;48.60
11099;BME280;12223;42.650;23.364;2023-07-30T04:02:04;94594.44;;;27.08;47.50
11099;BME280;12223;42.650;23.364;2023-07-30T04:04:31;94602.19;;;25.99;50.00
11099;BME280;12223;42.650;23.364;2023-07-30T04:06:58;94603.88;;;24.39;53.79
11099;BME280;12223;42.650;23.364;2023-07-30T04:09:25;94602.31;;;25.26;53.27
11099;BME280;12223;42.650;23.364;2023-07-30T04:11:53;94598.94;;;28.17;44.97
11099;BME280;12223;42.650;23.364;2023-07-30T04:14:20;94603.16;;;30.21;39.43
11099;BME280;12223;42.650;23.364;2023-07-30T04:16:47;94604.94;;;31.51;36.40
11099;BME280;12223;42.650;23.364;2023-07-30T04:19:14;94600.50;;;31.97;35.24
11099;BME280;12223;42.650;23.364;2023-07-30T04:21:41;94603.31;;;32.20;34.38
11099;BME280;12223;42.650;23.364;2023-07-30T04:24:08;94606.13;;;33.07;32.75
11099;BME280;12223;42.650;23.364;2023-07-30T04:26:34;94604.69;;;33.63;32.31
11099;BME280;12223;42.650;23.364;2023-07-30T04:29:02;94611.28;;;31.90;34.17
11099;BME280;12223;42.650;23.364;2023-07-30T04:31:29;94607.91;;;32.96;33.04
11099;BME280;12223;42.650;23.364;2023-07-30T04:33:57;94608.34;;;35.04;30.00
11099;BME280;12223;42.650;23.364;2023-07-30T04:36:24;94609.03;;;35.93;29.10
11099;BME280;12223;42.650;23.364;2023-07-30T04:38:51;94613.31;;;35.83;28.83
11099;BME280;12223;42.650;23.364;2023-07-30T04:41:17;94611.94;;;33.25;31.17
11099;BME280;12223;42.650;23.364;2023-07-30T04:43:44;94618.84;;;36.73;26.64
11099;BME280;12223;42.650;23.364;2023-07-30T04:46:12;94617.25;;;38.21;25.22
11099;BME280;12223;42.650;23.364;2023-07-30T04:48:40;94619.03;;;39.32;23.29
11099;BME280;12223;42.650;23.364;2023-07-30T04:51:07;94617.88;;;40.15;22.40
11099;BME280;12223;42.650;23.364;2023-07-30T04:53:34;94614.75;;;40.47;21.88
11099;BME280;12223;42.650;23.364;2023-07-30T04:56:01;94616.53;;;38.03;23.72
11099;BME280;12223;42.650;23.364;2023-07-30T04:58:27;94617.28;;;39.53;23.22
11099;BME280;12223;42.650;23.364;2023-07-30T05:00:54;94624.88;;;40.61;21.90
11099;BME280;12223;42.650;23.364;2023-07-30T05:03:22;94623.69;;;40.28;22.47
11099;BME280;12223;42.650;23.364;2023-07-30T05:05:49;94630.16;;;40.52;21.32
11099;BME280;12223;42.650;23.364;2023-07-30T05:08:16;94630.91;;;38.60;23.32
11099;BME280;12223;42.650;23.364;2023-07-30T05:10:42;94623.75;;;36.21;25.93
11099;BME280;12223;42.650;23.364;2023-07-30T05:13:09;94624.72;;;36.72;25.59
11099;BME280;12223;42.650;23.364;2023-07-30T05:15:38;94627.47;;;39.11;22.91
11099;BME280;12223;42.650;23.364;2023-07-30T05:18:05;94624.06;;;38.86;23.49
11099;BME280;12223;42.650;23.364;2023-07-30T05:20:33;94623.25;;;37.88;24.65
11099;BME280;12223;42.650;23.364;2023-07-30T05:22:59;94623.38;;;40.23;21.93
11099;BME280;12223;42.650;23.364;2023-07-30T05:25:27;94620.66;;;40.83;21.56
11099;BME280;12223;42.650;23.364;2023-07-30T05:27:55;94624.56;;;41.40;20.75
11099;BME280;12223;42.650;23.364;2023-07-30T05:30:21;94617.13;;;40.11;22.08
11099;BME280;12223;42.650;23.364;2023-07-30T05:32:48;94623.22;;;39.55;22.49
11099;BME280;12223;42.650;23.364;2023-07-30T05:35:15;94616.44;;;38.31;24.06
11099;BME280;12223;42.650;23.364;2023-07-30T05:37:45;94625.22;;;39.51;22.90
11099;BME280;12223;42.650;23.364;2023-07-30T05:40:12;94630.97;;;40.11;22.74
11099;BME280;12223;42.650;23.364;2023-07-30T05:42:38;94625.97;;;38.12;24.80
11099;BME280;12223;42.650;23.364;2023-07-30T05:45:06;94624.81;;;37.53;24.93
11099;BME280;12223;42.650;23.364;2023-07-30T05:47:33;94624.78;;;35.99;26.83
11099;BME280;12223;42.650;23.364;2023-07-30T05:50:01;94628.81;;;36.16;26.88
11099;BME280;12223;42.650;23.364;2023-07-30T05:52:28;94622.72;;;35.78;26.99
11099;BME280;12223;42.650;23.364;2023-07-30T05:54:56;94623.00;;;34.45;29.07
11099;BME280;12223;42.650;23.364;2023-07-30T05:57:22;94620.31;;;33.62;30.86
11099;BME280;12223;42.650;23.364;2023-07-30T05:59:49;94625.53;;;33.22;31.68
11099;BME280;12223;42.650;23.364;2023-07-30T06:02:16;94617.13;;;32.88;32.11
11099;BME280;12223;42.650;23.364;2023-07-30T06:04:43;94617.75;;;32.78;32.85
11099;BME280;12223;42.650;23.364;2023-07-30T06:07:10;94621.84;;;32.88;32.00
11099;BME280;12223;42.650;23.364;2023-07-30T06:09:37;94627.41;;;32.33;32.64
11099;BME280;12223;42.650;23.364;2023-07-30T06:12:05;94632.94;;;31.48;33.52
11099;BME280;12223;42.650;23.364;2023-07-30T06:14:32;94626.16;;;30.95;34.28
11099;BME280;12223;42.650;23.364;2023-07-30T06:16:59;94627.72;;;30.64;35.16
11099;BME280;12223;42.650;23.364;2023-07-30T06:19:25;94626.72;;;30.29;36.37
11099;BME280;12223;42.650;23.364;2023-07-30T06:21:52;94629.50;;;30.17;35.71
11099;BME280;12223;42.650;23.364;2023-07-30T06:24:19;94623.06;;;29.57;36.97
11099;BME280;12223;42.650;23.364;2023-07-30T06:26:46;94619.59;;;29.96;36.11
11099;BME280;12223;42.650;23.364;2023-07-30T06:29:14;94622.78;;;30.26;35.56
11099;BME280;12223;42.650;23.364;2023-07-30T06:31:41;94616.72;;;30.33;36.00
11099;BME280;12223;42.650;23.364;2023-07-30T06:34:08;94617.91;;;28.25;40.08
11099;BME280;12223;42.650;23.364;2023-07-30T06:36:35;94619.41;;;28.47;40.08
11099;BME280;12223;42.650;23.364;2023-07-30T06:39:02;94616.28;;;29.39;38.51
11099;BME280;12223;42.650;23.364;2023-07-30T06:41:29;94612.84;;;28.15;41.10
11099;BME280;12223;42.650;23.364;2023-07-30T06:43:55;94606.75;;;27.97;41.05
11099;BME280;12223;42.650;23.364;2023-07-30T06:46:23;94602.41;;;28.05;40.98
11099;BME280;12223;42.650;23.364;2023-07-30T06:48:50;94599.22;;;29.66;38.58
11099;BME280;12223;42.650;23.364;2023-07-30T06:51:19;94598.44;;;30.33;36.92
11099;BME280;12223;42.650;23.364;2023-07-30T06:53:46;94596.59;;;30.65;36.05
11099;BME280;12223;42.650;23.364;2023-07-30T06:56:12;94591.69;;;30.71;36.15
11099;BME280;12223;42.650;23.364;2023-07-30T06:58:39;94594.78;;;30.14;36.66
11099;BME280;12223;42.650;23.364;2023-07-30T07:01:06;94584.03;;;30.76;36.12
11099;BME280;12223;42.650;23.364;2023-07-30T07:03:34;94592.19;;;31.39;34.49
11099;BME280;12223;42.650;23.364;2023-07-30T07:06:01;94585.25;;;29.68;37.26
11099;BME280;12223;42.650;23.364;2023-07-30T07:08:28;94584.34;;;29.76;37.37
11099;BME280;12223;42.650;23.364;2023-07-30T07:10:55;94582.59;;;30.51;35.64
11099;BME280;12223;42.650;23.364;2023-07-30T07:13:21;94579.56;;;31.50;33.60
11099;BME280;12223;42.650;23.364;2023-07-30T07:15:48;94575.91;;;31.78;33.16
11099;BME280;12223;42.650;23.364;2023-07-30T07:18:15;94576.03;;;31.66;32.90
11099;BME280;12223;42.650;23.364;2023-07-30T07:20:43;94573.75;;;31.52;32.62
11099;BME280;12223;42.650;23.364;2023-07-30T07:23:10;94561.81;;;30.47;34.36
11099;BME280;12223;42.650;23.364;2023-07-30T07:25:36;94568.91;;;30.35;35.57
11099;BME280;12223;42.650;23.364;2023-07-30T07:28:04;94566.31;;;30.55;35.53
11099;BME280;12223;42.650;23.364;2023-07-30T07:30:30;94563.66;;;29.23;37.95
11099;BME280;12223;42.650;23.364;2023-07-30T07:32:57;94564.31;;;30.52;35.67
11099;BME280;12223;42.650;23.364;2023-07-30T07:35:24;94552.69;;;31.33;34.47
11099;BME280;12223;42.650;23.364;2023-07-30T07:37:52;94555.34;;;32.03;33.80
11099;BME280;12223;42.650;23.364;2023-07-30T07:40:19;94553.72;;;31.99;33.64
11099;BME280;12223;42.650;23.364;2023-07-30T07:42:46;94548.59;;;31.97;32.93
11099;BME280;12223;42.650;23.364;2023-07-30T07:45:12;94550.91;;;31.41;33.23
11099;BME280;12223;42.650;23.364;2023-07-30T07:47:39;94547.09;;;31.45;33.41
11099;BME280;12223;42.650;23.364;2023-07-30T07:50:06;94555.00;;;30.25;35.48
11099;BME280;12223;42.650;23.364;2023-07-30T07:52:33;94550.94;;;30.19;35.35
11099;BME280;12223;42.650;23.364;2023-07-30T07:55:01;94545.84;;;28.07;39.56
11099;BME280;12223;42.650;23.364;2023-07-30T07:57:28;94541.59;;;29.12;37.61
11099;BME280;12223;42.650;23.364;2023-07-30T07:59:56;94545.84;;;29.49;36.64
11099;BME280;12223;42.650;23.364;2023-07-30T08:02:23;94544.75;;;29.38;36.78
11099;BME280;12223;42.650;23.364;2023-07-30T08:04:50;94545.13;;;30.95;34.20
11099;BME280;12223;42.650;23.364;2023-07-30T08:07:16;94537.88;;;31.88;32.84
11099;BME280;12223;42.650;23.364;2023-07-30T08:09:43;94530.13;;;31.55;34.37
11099;BME280;12223;42.650;23.364;2023-07-30T08:12:11;94535.41;;;30.79;35.89
11099;BME280;12223;42.650;23.364;2023-07-30T08:14:39;94528.94;;;30.40;36.21
11099;BME280;12223;42.650;23.364;2023-07-30T08:17:06;94534.00;;;30.53;36.03
11099;BME280;12223;42.650;23.364;2023-07-30T08:19:33;94528.91;;;31.34;34.24
11099;BME280;12223;42.650;23.364;2023-07-30T08:21:59;94528.84;;;31.84;33.57
11099;BME280;12223;42.650;23.364;2023-07-30T08:24:26;94529.50;;;32.16;31.93
11099;BME280;12223;42.650;23.364;2023-07-30T08:26:53;94525.81;;;31.70;32.22
11099;BME280;12223;42.650;23.364;2023-07-30T08:29:21;94527.34;;;31.68;32.59
11099;BME280;12223;42.650;23.364;2023-07-30T08:31:48;94520.84;;;31.95;32.66
11099;BME280;12223;42.650;23.364;2023-07-30T08:34:14;94525.84;;;31.35;33.77
11099;BME280;12223;42.650;23.364;2023-07-30T08:36:41;94527.75;;;30.53;35.57
11099;BME280;12223;42.650;23.364;2023-07-30T08:39:08;94509.97;;;30.74;34.71
11099;BME280;12223;42.650;23.364;2023-07-30T08:41:35;94522.34;;;30.88;34.38
11099;BME280;12223;42.650;23.364;2023-07-30T08:44:01;94513.88;;;30.30;36.10
11099;BME280;12223;42.650;23.364;2023-07-30T08:46:29;94508.53;;;31.47;33.21
11099;BME280;12223;42.650;23.364;2023-07-30T08:48:56;94502.81;;;31.90;32.45
11099;BME280;12223;42.650;23.364;2023-07-30T08:51:25;94505.81;;;32.24;31.67
11099;BME280;12223;42.650;23.364;2023-07-30T08:53:52;94499.94;;;32.45;32.45
11099;BME280;12223;42.650;23.364;2023-07-30T08:56:19;94501.47;;;31.46;33.57
11099;BME280;12223;42.650;23.364;2023-07-30T08:58:47;94501.84;;;30.94;33.65
11099;BME280;12223;42.650;23.364;2023-07-30T09:01:18;94494.03;;;31.81;32.40
11099;BME280;12223;42.650;23.364;2023-07-30T09:03:48;94488.84;;;31.57;32.92
11099;BME280;12223;42.650;23.364;2023-07-30T09:06:16;94494.56;;;30.98;33.17
11099;BME280;12223;42.650;23.364;2023-07-30T09:08:43;94488.59;;;32.43;31.69
11099;BME280;12223;42.650;23.364;2023-07-30T09:11:11;94490.22;;;32.24;31.02
11099;BME280;12223;42.650;23.364;2023-07-30T09:13:38;94491.00;;;31.48;32.74
11099;BME280;12223;42.650;23.364;2023-07-30T09:16:09;94482.00;;;31.28;32.43
11099;BME280;12223;42.650;23.364;2023-07-30T09:18:40;94479.19;;;31.79;30.48
11099;BME280;12223;42.650;23.364;2023-07-30T09:21:10;94486.22;;;31.99;31.80
11099;BME280;12223;42.650;23.364;2023-07-30T09:23:40;94480.94;;;30.82;31.75
11099;BME280;12223;42.650;23.364;2023-07-30T09:26:07;94475.69;;;32.01;30.19
11099;BME280;12223;42.650;23.364;2023-07-30T09:28:34;94477.31;;;31.64;30.82
11099;BME280;12223;42.650;23.364;2023-07-30T09:31:01;94472.97;;;32.43;29.75
11099;BME280;12223;42.650;23.364;2023-07-30T09:33:29;94473.53;;;32.75;29.80
11099;BME280;12223;42.650;23.364;2023-07-30T09:35:57;94471.63;;;32.79;28.70
11099;BME280;12223;42.650;23.364;2023-07-30T09:38:25;94468.22;;;33.12;28.13
11099;BME280;12223;42.650;23.364;2023-07-30T09:41:00;94466.56;;;32.58;29.95
11099;BME280;12223;42.650;23.364;2023-07-30T09:43:28;94452.81;;;32.28;28.65
11099;BME280;12223;42.650;23.364;2023-07-30T09:46:00;94460.75;;;31.37;29.99
11099;BME280;12223;42.650;23.364;2023-07-30T09:48:29;94462.91;;;32.24;28.72
11099;BME280;12223;42.650;23.364;2023-07-30T09:50:57;94452.53;;;32.60;28.16
11099;BME280;12223;42.650;23.364;2023-07-30T09:53:26;94449.00;;;32.59;28.32
11099;BME280;12223;42.650;23.364;2023-07-30T09:55:54;94451.16;;;31.63;28.69
11099;BME280;12223;42.650;23.364;2023-07-30T09:58:21;94447.84;;;31.73;28.46
11099;BME280;12223;42.650;23.364;2023-07-30T10:00:48;94450.69;;;31.99;29.15
11099;BME280;12223;42.650;23.364;2023-07-30T10:03:16;94441.88;;;32.28;28.50
11099;BME280;12223;42.650;23.364;2023-07-30T10:05:44;94444.38;;;32.37;27.77
11099;BME280;12223;42.650;23.364;2023-07-30T10:08:14;94436.94;;;32.38;27.34
11099;BME280;12223;42.650;23.364;2023-07-30T10:10:43;94439.00;;;32.21;27.31
11099;BME280;12223;42.650;23.364;2023-07-30T10:13:11;94433.72;;;33.07;26.27
11099;BME280;12223;42.650;23.364;2023-07-30T10:15:39;94427.34;;;33.26;26.12
11099;BME280;12223;42.650;23.364;2023-07-30T10:18:06;94424.59;;;33.23;26.61
11099;BME280;12223;42.650;23.364;2023-07-30T10:20:33;94424.19;;;33.54;27.22
11099;BME280;12223;42.650;23.364;2023-07-30T10:23:00;94420.59;;;33.76;26.45
11099;BME280;12223;42.650;23.364;2023-07-30T10:25:29;94416.69;;;34.58;25.78
11099;BME280;12223;42.650;23.364;2023-07-30T10:27:58;94411.91;;;35.03;25.74
11099;BME280;12223;42.650;23.364;2023-07-30T10:30:30;94404.50;;;35.14;25.52
11099;BME280;12223;42.650;23.364;2023-07-30T10:32:59;94411.81;;;34.41;25.82
11099;BME280;12223;42.650;23.364;2023-07-30T10:35:40;94414.16;;;34.39;26.26
11099;BME280;12223;42.650;23.364;2023-07-30T10:38:14;94407.28;;;33.78;26.64
11099;BME280;12223;42.650;23.364;2023-07-30T10:40:41;94406.22;;;33.90;26.20
11099;BME280;12223;42.650;23.364;2023-07-30T10:43:16;94399.47;;;31.92;28.19
11099;BME280;12223;42.650;23.364;2023-07-30T10:45:49;94400.84;;;31.83;28.90
11099;BME280;12223;42.650;23.364;2023-07-30T10:48:16;94388.34;;;32.05;28.49
11099;BME280;12223;42.650;23.364;2023-07-30T10:50:43;94389.19;;;32.54;27.76
11099;BME280;12223;42.650;23.364;2023-07-30T10:53:14;94383.19;;;33.28;27.16
11099;BME280;12223;42.650;23.364;2023-07-30T10:55:41;94380.56;;;32.07;28.73
11099;BME280;12223;42.650;23.364;2023-07-30T10:58:08;94373.63;;;33.14;27.02
11099;BME280;12223;42.650;23.364;2023-07-30T11:00:36;94367.09;;;34.30;26.48
11099;BME280;12223;42.650;23.364;2023-07-30T11:03:04;94368.28;;;34.84;25.01
11099;BME280;12223;42.650;23.364;2023-07-30T11:05:30;94364.72;;;34.80;25.12
11099;BME280;12223;42.650;23.364;2023-07-30T11:07:57;94361.59;;;34.78;25.66
11099;BME280;12223;42.650;23.364;2023-07-30T11:10:24;94353.22;;;35.29;25.51
11099;BME280;12223;42.650;23.364;2023-07-30T11:12:51;94353.00;;;35.87;24.45
11099;BME280;12223;42.650;23.364;2023-07-30T11:15:18;94348.00;;;35.02;25.33
11099;BME280;12223;42.650;23.364;2023-07-30T11:17:46;94349.06;;;35.74;24.30
11099;BME280;12223;42.650;23.364;2023-07-30T11:20:23;94340.47;;;35.93;24.27
11099;BME280;12223;42.650;23.364;2023-07-30T11:22:52;94342.84;;;36.51;23.22
11099;BME280;12223;42.650;23.364;2023-07-30T11:25:19;94338.16;;;36.34;23.18
11099;BME280;12223;42.650;23.364;2023-07-30T11:27:46;94339.66;;;35.82;24.26
11099;BME280;12223;42.650;23.364;2023-07-30T11:30:13;94335.66;;;35.62;23.91
11099;BME280;12223;42.650;23.364;2023-07-30T11:32:41;94329.47;;;35.97;23.59
11099;BME280;12223;42.650;23.364;2023-07-30T11:35:09;94332.16;;;35.68;24.38
11099;BME280;12223;42.650;23.364;2023-07-30T11:37:36;94327.94;;;36.24;24.03
11099;BME280;12223;42.650;23.364;2023-07-30T11:40:06;94314.56;;;36.37;22.74
11099;BME280;12223;42.650;23.364;2023-07-30T11:42:34;94316.13;;;36.09;23.37
11099;BME280;12223;42.650;23.364;2023-07-30T11:45:18;94316.84;;;35.67;23.74
11099;BME280;12223;42.650;23.364;2023-07-30T11:47:46;94311.03;;;34.86;24.69
11099;BME280;12223;42.650;23.364;2023-07-30T11:50:14;94312.28;;;33.52;25.94
11099;BME280;12223;42.650;23.364;2023-07-30T11:52:52;94315.09;;;33.60;25.89
11099;BME280;12223;42.650;23.364;2023-07-30T11:55:19;94296.09;;;34.18;25.47
11099;BME280;12223;42.650;23.364;2023-07-30T11:57:46;94306.88;;;33.56;25.59
11099;BME280;12223;42.650;23.364;2023-07-30T12:00:14;94294.09;;;33.30;26.07
11099;BME280;12223;42.650;23.364;2023-07-30T12:02:41;94289.75;;;33.66;25.13
11099;BME280;12223;42.650;23.364;2023-07-30T12:05:10;94278.84;;;34.14;25.27
11099;BME280;12223;42.650;23.364;2023-07-30T12:07:41;94282.09;;;33.82;25.85
11099;BME280;12223;42.650;23.364;2023-07-30T12:10:09;94274.19;;;33.70;25.37
11099;BME280;12223;42.650;23.364;2023-07-30T12:12:36;94275.06;;;33.85;25.75
11099;BME280;12223;42.650;23.364;2023-07-30T12:15:10;94268.41;;;34.34;25.14
11099;BME280;12223;42.650;23.364;2023-07-30T12:17:37;94275.81;;;33.41;25.50
11099;BME280;12223;42.650;23.364;2023-07-30T12:20:04;94273.47;;;33.06;26.17
11099;BME280;12223;42.650;23.364;2023-07-30T12:22:32;94264.47;;;32.72;26.25
11099;BME280;12223;42.650;23.364;2023-07-30T12:25:02;94249.19;;;34.30;24.30
11099;BME280;12223;42.650;23.364;2023-07-30T12:27:29;94247.41;;;33.57;25.38
11099;BME280;12223;42.650;23.364;2023-07-30T12:29:56;94244.19;;;33.47;25.07
11099;BME280;12223;42.650;23.364;2023-07-30T12:32:23;94245.06;;;32.85;26.60
11099;BME280;12223;42.650;23.364;2023-07-30T12:34:53;94237.94;;;34.49;24.10
11099;BME280;12223;42.650;23.364;2023-07-30T12:37:20;94236.78;;;33.96;25.18
11099;BME280;12223;42.650;23.364;2023-07-30T12:39:47;94240.56;;;35.07;24.17
11099;BME280;12223;42.650;23.364;2023-07-30T12:42:15;94233.72;;;34.62;24.44
11099;BME280;12223;42.650;23.364;2023-07-30T12:44:42;94238.13;;;34.81;23.94
11099;BME280;12223;42.650;23.364;2023-07-30T12:47:09;94220.13;;;34.91;23.83
11099;BME280;12223;42.650;23.364;2023-07-30T12:49:35;94228.06;;;33.79;25.01
11099;BME280;12223;42.650;23.364;2023-07-30T12:52:02;94222.47;;;33.69;25.34